createdAt,value
2022-09-21T00:01:36.139Z,9.49
2022-09-21T00:04:05.589Z,9.45
2022-09-21T00:06:35.837Z,9.44
2022-09-21T00:09:05.656Z,9.43
2022-09-21T00:11:34.722Z,9.41
2022-09-21T00:14:07.629Z,9.36
2022-09-21T00:16:36.135Z,9.31
2022-09-21T00:19:04.714Z,9.27
2022-09-21T00:21:34.407Z,9.25
2022-09-21T00:24:03.960Z,9.19
2022-09-21T00:26:32.884Z,9.13
2022-09-21T00:29:03.787Z,9.12
2022-09-21T00:31:33.874Z,9.10
2022-09-21T00:34:03.818Z,9.10
2022-09-21T00:36:32.021Z,9.09
2022-09-21T00:39:02.602Z,9.11
2022-09-21T00:41:33.634Z,9.14
2022-09-21T00:44:24.811Z,9.12
2022-09-21T00:46:57.706Z,9.09
2022-09-21T00:49:28.237Z,9.07
2022-09-21T00:51:59.984Z,9.03
2022-09-21T00:54:38.312Z,8.98
2022-09-21T00:57:08.107Z,8.96
2022-09-21T00:59:39.090Z,8.93
2022-09-21T01:02:08.351Z,8.90
2022-09-21T01:04:37.301Z,8.86
2022-09-21T01:07:12.381Z,8.88
2022-09-21T01:09:43.355Z,8.86
2022-09-21T01:13:07.199Z,8.87
2022-09-21T01:15:52.137Z,8.86
2022-09-21T01:18:41.123Z,8.85
2022-09-21T01:21:23.039Z,8.86
2022-09-21T01:24:35.150Z,8.88
2022-09-21T01:27:37.349Z,8.85
2022-09-21T01:30:12.553Z,8.86
2022-09-21T01:32:52.267Z,8.83
2022-09-21T01:35:32.832Z,8.85
2022-09-21T01:38:17.744Z,8.83
2022-09-21T01:40:52.538Z,8.80
2022-09-21T01:43:31.282Z,8.80
2022-09-21T01:46:03.440Z,8.79
2022-09-21T01:48:39.910Z,8.80
2022-09-21T01:51:13.912Z,8.80
2022-09-21T01:54:00.498Z,8.77
2022-09-21T01:56:53.649Z,8.77
2022-09-21T01:59:49.233Z,8.77
2022-09-21T02:02:33.247Z,8.77
2022-09-21T02:05:06.113Z,8.70
2022-09-21T02:07:36.140Z,8.62
2022-09-21T02:10:09.225Z,8.57
2022-09-21T02:12:37.670Z,8.51
2022-09-21T02:15:06.392Z,8.50
2022-09-21T02:17:44.030Z,8.49
2022-09-21T02:20:29.340Z,8.49
2022-09-21T02:23:32.796Z,8.49
2022-09-21T02:26:06.721Z,8.43
2022-09-21T02:29:11.338Z,8.46
2022-09-21T02:32:38.101Z,8.46
2022-09-21T02:35:39.474Z,8.45
2022-09-21T02:38:36.887Z,8.45
2022-09-21T02:41:08.742Z,8.40
2022-09-21T02:43:37.121Z,8.40
2022-09-21T02:46:12.756Z,8.37
2022-09-21T02:48:49.686Z,8.34
2022-09-21T02:51:23.632Z,8.29
2022-09-21T02:53:54.178Z,8.25
2022-09-21T02:56:23.032Z,8.24
2022-09-21T02:58:59.628Z,8.23
2022-09-21T03:01:29.753Z,8.18
2022-09-21T03:03:58.330Z,8.16
2022-09-21T03:06:26.782Z,8.16
2022-09-21T03:08:55.253Z,8.14
2022-09-21T03:11:23.791Z,8.07
2022-09-21T03:13:52.358Z,8.04
2022-09-21T03:16:21.291Z,8.03
2022-09-21T03:18:49.884Z,8.02
2022-09-21T03:21:18.365Z,8.06
2022-09-21T03:23:46.737Z,8.03
2022-09-21T03:26:15.085Z,8.00
2022-09-21T03:28:43.416Z,7.97
2022-09-21T03:31:12.334Z,7.97
2022-09-21T03:33:40.775Z,7.94
2022-09-21T03:36:10.196Z,7.93
2022-09-21T03:38:38.719Z,7.89
2022-09-21T03:41:07.371Z,7.89
2022-09-21T03:43:35.817Z,7.88
2022-09-21T03:46:04.229Z,7.87
2022-09-21T03:48:32.686Z,7.85
2022-09-21T03:51:01.070Z,7.84
2022-09-21T03:53:29.393Z,7.82
2022-09-21T03:55:58.942Z,7.78
2022-09-21T03:58:27.319Z,7.74
2022-09-21T04:00:55.709Z,7.75
2022-09-21T04:03:24.081Z,7.75
2022-09-21T04:05:52.461Z,7.73
2022-09-21T04:08:20.852Z,7.75
2022-09-21T04:10:49.271Z,7.70
2022-09-21T04:13:17.288Z,7.67
2022-09-21T04:15:45.708Z,7.68
2022-09-21T04:18:14.119Z,7.67
2022-09-21T04:20:42.551Z,7.68
2022-09-21T04:23:11.202Z,7.69
2022-09-21T04:25:39.528Z,7.69
2022-09-21T04:28:08.032Z,7.72
2022-09-21T04:30:37.937Z,7.70
2022-09-21T04:33:06.557Z,7.68
2022-09-21T04:35:35.006Z,7.63
2022-09-21T04:38:03.353Z,7.57
2022-09-21T04:40:31.846Z,7.57
2022-09-21T04:43:00.216Z,7.58
2022-09-21T04:45:28.623Z,7.57
2022-09-21T04:47:56.987Z,7.58
2022-09-21T04:50:25.617Z,7.56
2022-09-21T04:52:54.026Z,7.53
2022-09-21T04:55:23.231Z,7.56
2022-09-21T04:57:51.638Z,7.56
2022-09-21T05:00:20.073Z,7.59
2022-09-21T05:02:48.647Z,7.63
2022-09-21T05:05:17.192Z,7.67
2022-09-21T05:07:45.633Z,7.64
2022-09-21T05:10:13.251Z,7.64
2022-09-21T05:12:42.222Z,7.67
2022-09-21T05:15:12.306Z,7.65
2022-09-21T05:17:41.567Z,7.66
2022-09-21T05:20:10.837Z,7.65
2022-09-21T05:22:39.261Z,7.62
2022-09-21T05:25:08.396Z,7.59
2022-09-21T05:27:36.780Z,7.57
2022-09-21T05:30:06.275Z,7.59
2022-09-21T05:32:50.069Z,7.65
2022-09-21T05:35:54.210Z,7.68
2022-09-21T05:38:22.834Z,7.70
2022-09-21T05:40:51.553Z,7.70
2022-09-21T05:43:19.995Z,7.70
2022-09-21T05:46:13.113Z,7.73
2022-09-21T05:48:57.147Z,7.78
2022-09-21T05:51:41.971Z,7.75
2022-09-21T05:54:23.943Z,7.72
2022-09-21T05:57:05.090Z,7.74
2022-09-21T05:59:57.642Z,7.77
2022-09-21T06:02:46.070Z,7.87
2022-09-21T06:05:16.205Z,8.01
2022-09-21T06:07:44.259Z,8.15
2022-09-21T06:10:15.204Z,8.26
2022-09-21T06:12:44.265Z,8.39
2022-09-21T06:15:15.945Z,8.49
2022-09-21T06:17:44.652Z,8.57
2022-09-21T06:20:12.652Z,8.68
2022-09-21T06:22:41.028Z,8.82
2022-09-21T06:25:09.683Z,8.91
2022-09-21T06:27:38.064Z,9.00
2022-09-21T06:30:06.730Z,9.07
2022-09-21T06:32:34.680Z,9.12
2022-09-21T06:35:03.048Z,9.23
2022-09-21T06:37:31.171Z,9.28
2022-09-21T06:39:59.222Z,9.34
2022-09-21T06:42:29.055Z,9.42
2022-09-21T06:44:57.027Z,9.50
2022-09-21T06:47:25.037Z,9.51
2022-09-21T06:49:54.145Z,9.54
2022-09-21T06:52:22.127Z,9.61
2022-09-21T06:54:50.443Z,9.67
2022-09-21T06:57:18.426Z,9.75
2022-09-21T06:59:47.136Z,9.79
2022-09-21T07:02:16.109Z,9.83
2022-09-21T07:04:44.526Z,9.88
2022-09-21T07:07:12.974Z,9.92
2022-09-21T07:12:34.604Z,9.96
2022-09-21T07:15:07.640Z,10.04
2022-09-21T07:17:38.100Z,10.12
2022-09-21T07:20:08.892Z,10.20
2022-09-21T07:22:37.682Z,10.27
2022-09-21T07:25:06.980Z,10.32
2022-09-21T07:27:35.485Z,10.35
2022-09-21T07:30:03.915Z,10.41
2022-09-21T07:32:32.799Z,10.46
2022-09-21T07:35:00.877Z,10.53
2022-09-21T07:37:29.660Z,10.58
2022-09-21T07:39:57.632Z,10.63
2022-09-21T07:42:26.485Z,10.69
2022-09-21T07:45:04.482Z,10.71
2022-09-21T07:47:33.120Z,10.75
2022-09-21T07:50:01.136Z,10.80
2022-09-21T07:52:29.511Z,10.85
2022-09-21T07:54:57.909Z,10.88
2022-09-21T07:57:43.091Z,10.94
2022-09-21T08:00:11.920Z,10.99
2022-09-21T08:02:45.135Z,11.05
2022-09-21T08:05:16.216Z,11.11
2022-09-21T08:07:44.684Z,11.11
2022-09-21T08:10:13.108Z,11.15
2022-09-21T08:12:41.454Z,11.22
2022-09-21T08:15:30.678Z,11.27
2022-09-21T08:18:01.344Z,11.35
2022-09-21T08:20:30.336Z,11.41
2022-09-21T08:22:58.303Z,11.47
2022-09-21T08:25:27.304Z,11.53
2022-09-21T08:28:00.537Z,11.65
2022-09-21T08:30:31.161Z,11.77
2022-09-21T08:32:59.193Z,11.97
2022-09-21T08:35:27.635Z,12.16
2022-09-21T08:37:56.173Z,12.29
2022-09-21T08:40:24.672Z,12.45
2022-09-21T08:43:05.306Z,12.61
2022-09-21T08:45:42.311Z,12.71
2022-09-21T08:48:35.835Z,12.83
2022-09-21T08:51:09.868Z,12.87
2022-09-21T08:53:43.340Z,12.85
2022-09-21T08:56:16.746Z,12.89
2022-09-21T08:58:45.308Z,12.96
2022-09-21T09:01:22.664Z,13.03
2022-09-21T09:04:05.676Z,13.12
2022-09-21T09:06:57.929Z,13.23
2022-09-21T09:09:35.801Z,13.37
2022-09-21T09:12:22.475Z,13.55
2022-09-21T09:15:05.352Z,13.75
2022-09-21T09:17:53.186Z,13.89
2022-09-21T09:20:28.562Z,14.02
2022-09-21T09:23:28.430Z,14.02
2022-09-21T09:26:09.007Z,14.10
2022-09-21T09:28:44.020Z,14.14
2022-09-21T09:31:33.302Z,14.21
2022-09-21T09:34:22.815Z,14.29
2022-09-21T09:37:02.050Z,14.32
2022-09-21T09:39:31.779Z,14.32
2022-09-21T09:42:30.121Z,14.34
2022-09-21T09:45:39.729Z,14.24
2022-09-21T09:48:23.179Z,14.10
2022-09-21T09:50:51.435Z,13.96
2022-09-21T09:53:26.676Z,14.05
2022-09-21T09:55:57.822Z,14.10
2022-09-21T09:58:40.663Z,14.19
2022-09-21T10:01:09.529Z,14.26
2022-09-21T10:03:38.494Z,14.38
2022-09-21T10:06:07.015Z,14.42
2022-09-21T10:08:39.238Z,14.56
2022-09-21T10:11:08.049Z,14.70
2022-09-21T10:13:42.792Z,14.87
2022-09-21T10:16:23.501Z,14.93
2022-09-21T10:19:01.736Z,15.03
2022-09-21T10:21:38.503Z,15.18
2022-09-21T10:24:08.093Z,15.23
2022-09-21T10:26:51.232Z,15.37
2022-09-21T10:29:24.081Z,15.48
2022-09-21T10:32:27.121Z,15.53
2022-09-21T10:35:07.682Z,15.58
2022-09-21T10:37:40.231Z,15.51
2022-09-21T10:40:27.167Z,15.58
2022-09-21T10:43:00.625Z,15.76
2022-09-21T10:45:31.563Z,15.71
2022-09-21T10:48:18.007Z,15.80
2022-09-21T10:50:49.420Z,15.77
2022-09-21T10:53:38.528Z,15.74
2022-09-21T10:56:25.099Z,15.70
2022-09-21T10:59:24.125Z,15.60
2022-09-21T11:01:55.452Z,15.62
2022-09-21T11:04:46.256Z,15.60
2022-09-21T11:07:34.202Z,15.58
2022-09-21T11:10:20.112Z,15.42
2022-09-21T11:13:26.543Z,15.43
2022-09-21T11:16:22.043Z,15.40
2022-09-21T11:19:17.591Z,15.38
2022-09-21T11:22:39.644Z,15.30
2022-09-21T11:25:32.528Z,15.17
2022-09-21T11:28:18.220Z,15.12
2022-09-21T11:30:58.511Z,15.12
2022-09-21T11:34:03.270Z,15.22
2022-09-21T11:37:11.007Z,15.25
2022-09-21T11:40:26.300Z,15.35
2022-09-21T11:42:59.045Z,15.32
2022-09-21T11:45:51.398Z,15.29
2022-09-21T11:48:54.103Z,15.18
2022-09-21T11:51:58.842Z,15.07
2022-09-21T11:55:15.428Z,15.05
2022-09-21T11:57:54.290Z,15.06
2022-09-21T12:00:26.664Z,15.09
2022-09-21T12:03:40.702Z,15.17
2022-09-21T12:06:35.195Z,15.18
2022-09-21T12:09:44.060Z,15.04
2022-09-21T12:12:23.217Z,15.00
2022-09-21T12:15:27.734Z,15.00
2022-09-21T12:18:06.652Z,14.96
2022-09-21T12:21:18.885Z,14.86
2022-09-21T12:23:55.687Z,14.88
2022-09-21T12:26:41.690Z,15.07
2022-09-21T12:29:50.480Z,15.26
2022-09-21T12:32:53.145Z,15.38
2022-09-21T12:35:43.595Z,15.51
2022-09-21T12:38:41.754Z,15.58
2022-09-21T12:41:53.829Z,15.66
2022-09-21T12:44:22.140Z,15.73
2022-09-21T12:47:10.289Z,15.86
2022-09-21T12:49:49.665Z,15.98
2022-09-21T12:52:28.775Z,16.06
2022-09-21T12:55:22.171Z,16.15
2022-09-21T12:58:32.919Z,16.22
2022-09-21T13:01:28.458Z,16.18
2022-09-21T13:04:02.810Z,16.06
2022-09-21T13:07:04.413Z,15.95
2022-09-21T13:09:33.049Z,15.84
2022-09-21T13:12:25.021Z,15.69
2022-09-21T13:15:02.400Z,15.52
2022-09-21T13:17:33.640Z,15.40
2022-09-21T13:20:22.654Z,15.27
2022-09-21T13:22:51.181Z,15.17
2022-09-21T13:25:29.812Z,15.11
2022-09-21T13:28:04.574Z,15.00
2022-09-21T13:30:43.313Z,14.92
2022-09-21T13:33:20.428Z,14.83
2022-09-21T13:36:01.025Z,14.82
2022-09-21T13:38:41.187Z,14.78
2022-09-21T13:41:18.591Z,14.76
2022-09-21T13:43:54.849Z,14.71
2022-09-21T13:46:37.991Z,14.69
2022-09-21T13:49:12.369Z,14.66
2022-09-21T13:52:03.881Z,14.69
2022-09-21T13:54:46.781Z,14.68
2022-09-21T13:57:42.902Z,14.68
2022-09-21T14:00:14.781Z,14.70
2022-09-21T14:02:47.720Z,14.73
2022-09-21T14:05:44.564Z,14.82
2022-09-21T14:08:50.006Z,14.95
2022-09-21T14:11:19.364Z,15.16
2022-09-21T14:14:14.459Z,15.34
2022-09-21T14:16:45.598Z,15.38
2022-09-21T14:19:19.611Z,15.44
2022-09-21T14:22:06.376Z,15.47
2022-09-21T14:24:46.311Z,15.59
2022-09-21T14:27:25.924Z,15.61
2022-09-21T14:30:08.240Z,15.60
2022-09-21T14:32:54.615Z,15.56
2022-09-21T14:35:30.262Z,15.57
2022-09-21T14:38:10.873Z,15.53
2022-09-21T14:40:42.481Z,15.49
2022-09-21T14:43:35.297Z,15.43
2022-09-21T14:46:32.714Z,15.39
2022-09-21T14:49:31.824Z,15.35
2022-09-21T14:52:40.167Z,15.31
2022-09-21T14:55:50.879Z,15.25
2022-09-21T14:58:58.903Z,15.18
2022-09-21T15:01:40.855Z,15.24
2022-09-21T15:04:33.678Z,15.32
2022-09-21T15:07:35.098Z,15.37
2022-09-21T15:10:58.555Z,15.45
2022-09-21T15:14:22.988Z,15.49
2022-09-21T15:16:52.806Z,15.57
2022-09-21T15:19:29.877Z,15.71
2022-09-21T15:22:24.952Z,15.81
2022-09-21T15:25:06.003Z,15.85
2022-09-21T15:27:34.704Z,15.86
2022-09-21T15:30:06.616Z,15.89
2022-09-21T15:32:39.385Z,15.87
2022-09-21T15:35:22.584Z,15.82
2022-09-21T15:37:51.970Z,15.81
2022-09-21T15:40:29.668Z,15.82
2022-09-21T15:43:14.059Z,15.79
2022-09-21T15:45:59.346Z,15.82
2022-09-21T15:48:42.257Z,15.82
2022-09-21T15:51:35.692Z,15.83
2022-09-21T15:54:32.225Z,15.80
2022-09-21T15:57:07.961Z,15.78
2022-09-21T15:59:36.940Z,15.78
2022-09-21T16:02:19.769Z,15.80
2022-09-21T16:04:52.109Z,15.78
2022-09-21T16:07:38.942Z,15.78
2022-09-21T16:10:32.260Z,15.70
2022-09-21T16:13:43.261Z,15.64
2022-09-21T16:16:14.782Z,15.59
2022-09-21T16:18:55.426Z,15.53
2022-09-21T16:21:35.450Z,15.50
2022-09-21T16:24:22.406Z,15.51
2022-09-21T16:27:04.378Z,15.44
2022-09-21T16:29:43.271Z,15.39
2022-09-21T16:32:20.810Z,15.33
2022-09-21T16:34:51.249Z,15.27
2022-09-21T16:37:24.893Z,15.22
2022-09-21T16:39:54.866Z,15.23
2022-09-21T16:42:27.931Z,15.18
2022-09-21T16:44:56.916Z,15.19
2022-09-21T16:47:29.554Z,15.18
2022-09-21T16:50:01.928Z,15.11
2022-09-21T16:52:31.874Z,15.06
2022-09-21T16:55:01.453Z,14.99
2022-09-21T16:57:29.918Z,14.90
2022-09-21T16:59:59.018Z,14.79
2022-09-21T17:02:27.404Z,14.70
2022-09-21T17:04:55.818Z,14.58
2022-09-21T17:07:25.415Z,14.51
2022-09-21T17:09:54.037Z,14.45
2022-09-21T17:12:23.930Z,14.49
2022-09-21T17:14:52.928Z,14.52
2022-09-21T17:17:26.782Z,14.57
2022-09-21T17:19:55.671Z,14.58
2022-09-21T17:22:25.549Z,14.55
2022-09-21T17:24:54.942Z,14.51
2022-09-21T17:27:29.414Z,14.45
2022-09-21T17:30:03.401Z,14.36
2022-09-21T17:32:36.491Z,14.28
2022-09-21T17:35:27.605Z,14.19
2022-09-21T17:37:55.993Z,14.12
2022-09-21T17:40:25.365Z,14.05
2022-09-21T17:43:05.188Z,13.95
2022-09-21T17:46:13.078Z,13.85
2022-09-21T17:48:42.462Z,13.73
2022-09-21T17:51:11.829Z,13.67
2022-09-21T17:53:40.432Z,13.56
2022-09-21T17:56:53.448Z,13.45
2022-09-21T17:59:37.479Z,13.33
2022-09-21T18:02:24.978Z,13.25
2022-09-21T18:05:00.443Z,13.17
2022-09-21T18:07:29.440Z,13.08
2022-09-21T18:09:57.711Z,13.02
2022-09-21T18:13:27.644Z,12.97
2022-09-21T18:16:11.761Z,12.89
2022-09-21T18:19:06.375Z,12.83
2022-09-21T18:21:41.216Z,12.76
2022-09-21T18:24:15.618Z,12.68
2022-09-21T18:26:44.813Z,12.64
2022-09-21T18:29:41.985Z,12.56
2022-09-21T18:32:49.419Z,12.51
2022-09-21T18:35:17.821Z,12.44
2022-09-21T18:38:20.874Z,12.40
2022-09-21T18:41:21.999Z,12.35
2022-09-21T18:44:10.602Z,12.28
2022-09-21T18:46:41.656Z,12.23
2022-09-21T18:49:26.971Z,12.19
2022-09-21T18:52:04.642Z,12.16
2022-09-21T18:54:32.943Z,12.13
2022-09-21T18:57:01.546Z,12.12
2022-09-21T18:59:31.989Z,12.09
2022-09-21T19:02:00.755Z,12.09
2022-09-21T19:04:30.179Z,12.06
2022-09-21T19:07:04.565Z,12.04
2022-09-21T19:10:10.821Z,12.04
2022-09-21T19:13:22.837Z,11.97
2022-09-21T19:16:27.808Z,11.92
2022-09-21T19:19:20.330Z,11.85
2022-09-21T19:22:18.620Z,11.81
2022-09-21T19:25:02.516Z,11.77
2022-09-21T19:27:36.951Z,11.70
2022-09-21T19:30:17.873Z,11.64
2022-09-21T19:32:53.075Z,11.61
2022-09-21T19:35:35.236Z,11.59
2022-09-21T19:38:04.940Z,11.52
2022-09-21T19:40:36.472Z,11.50
2022-09-21T19:43:56.736Z,11.47
2022-09-21T19:46:37.811Z,11.41
2022-09-21T19:49:21.509Z,11.36
2022-09-21T19:51:52.735Z,11.33
2022-09-21T19:54:41.596Z,11.29
2022-09-21T19:57:36.971Z,11.27
2022-09-21T20:00:10.176Z,11.24
2022-09-21T20:03:07.483Z,11.23
2022-09-21T20:05:48.328Z,11.21
2022-09-21T20:09:23.825Z,11.22
2022-09-21T20:12:30.031Z,11.19
2022-09-21T20:15:15.851Z,11.16
2022-09-21T20:18:03.170Z,11.13
2022-09-21T20:20:31.619Z,11.06
2022-09-21T20:23:00.404Z,11.02
2022-09-21T20:26:03.466Z,11.00
2022-09-21T20:28:32.231Z,10.94
2022-09-21T20:31:00.993Z,10.93
2022-09-21T20:33:32.006Z,10.91
2022-09-21T20:36:00.570Z,10.91
2022-09-21T20:38:28.692Z,10.90
2022-09-21T20:40:57.221Z,10.91
2022-09-21T20:43:27.942Z,10.85
2022-09-21T20:46:00.523Z,10.81
2022-09-21T20:48:28.591Z,10.75
2022-09-21T20:50:58.813Z,10.74
2022-09-21T20:53:26.874Z,10.73
2022-09-21T20:56:01.039Z,10.72
2022-09-21T20:58:33.661Z,10.66
2022-09-21T21:01:07.477Z,10.66
2022-09-21T21:03:35.931Z,10.62
2022-09-21T21:06:18.764Z,10.61
2022-09-21T21:08:47.648Z,10.52
2022-09-21T21:11:16.102Z,10.48
2022-09-21T21:13:44.309Z,10.42
2022-09-21T21:16:13.167Z,10.40
2022-09-21T21:18:42.263Z,10.34
2022-09-21T21:21:10.643Z,10.28
2022-09-21T21:23:52.793Z,10.23
2022-09-21T21:26:33.348Z,10.20
2022-09-21T21:29:10.011Z,10.19
2022-09-21T21:31:38.263Z,10.18
2022-09-21T21:34:06.380Z,10.16
2022-09-21T21:36:34.342Z,10.18
2022-09-21T21:39:02.297Z,10.17
2022-09-21T21:41:31.339Z,10.19
2022-09-21T21:43:59.654Z,10.20
2022-09-21T21:46:28.388Z,10.22
2022-09-21T21:48:56.749Z,10.22
2022-09-21T21:51:24.892Z,10.19
2022-09-21T21:53:52.895Z,10.17
2022-09-21T21:56:22.757Z,10.14
2022-09-21T21:58:55.575Z,10.14
2022-09-21T22:01:29.280Z,10.13
2022-09-21T22:04:03.346Z,10.10
2022-09-21T22:06:37.281Z,10.04
2022-09-21T22:09:07.714Z,10.05
2022-09-21T22:11:36.776Z,10.05
2022-09-21T22:14:06.856Z,10.02
2022-09-21T22:16:37.966Z,10.02
2022-09-21T22:19:08.381Z,10.01
2022-09-21T22:21:46.609Z,9.96
2022-09-21T22:24:16.760Z,9.90
2022-09-21T22:26:48.470Z,9.90
2022-09-21T22:29:17.838Z,9.92
2022-09-21T22:31:49.475Z,9.90
2022-09-21T22:34:18.001Z,9.85
2022-09-21T22:36:46.704Z,9.84
2022-09-21T22:39:15.167Z,9.82
2022-09-21T22:41:44.086Z,9.84
2022-09-21T22:44:12.710Z,9.79
2022-09-21T22:46:41.279Z,9.77
2022-09-21T22:49:10.060Z,9.71
2022-09-21T22:51:38.240Z,9.66
2022-09-21T22:54:06.669Z,9.67
2022-09-21T22:56:35.650Z,9.64
2022-09-21T22:59:06.247Z,9.61
2022-09-21T23:01:38.764Z,9.55
2022-09-21T23:04:11.800Z,9.53
2022-09-21T23:06:43.486Z,9.54
2022-09-21T23:09:17.874Z,9.57
2022-09-21T23:11:49.328Z,9.58
2022-09-21T23:14:20.203Z,9.59
2022-09-21T23:16:48.493Z,9.57
2022-09-21T23:19:17.000Z,9.60
2022-09-21T23:21:50.603Z,9.63
2022-09-21T23:24:19.933Z,9.61
2022-09-21T23:26:50.467Z,9.63
2022-09-21T23:29:18.706Z,9.63
2022-09-21T23:31:47.211Z,9.65
2022-09-21T23:34:16.226Z,9.64
2022-09-21T23:36:46.646Z,9.63
2022-09-21T23:39:16.286Z,9.60
2022-09-21T23:41:45.238Z,9.57
2022-09-21T23:44:13.971Z,9.48
2022-09-21T23:46:42.493Z,9.43
2022-09-21T23:49:10.986Z,9.40
2022-09-21T23:51:39.203Z,9.42
2022-09-21T23:54:07.828Z,9.44
2022-09-21T23:56:36.231Z,9.44
2022-09-21T23:59:05.489Z,9.50
